createdAt,value
2022-10-25T00:01:41.853Z,100712.91
2022-10-25T00:04:08.729Z,100659.19
2022-10-25T00:06:35.321Z,100685.56
2022-10-25T00:09:01.838Z,100647.94
2022-10-25T00:11:30.338Z,100722.59
2022-10-25T00:14:00.188Z,100723.00
2022-10-25T00:16:30.410Z,100715.88
2022-10-25T00:18:57.229Z,100644.38
2022-10-25T00:21:24.080Z,100703.53
2022-10-25T00:23:52.073Z,100718.81
2022-10-25T00:26:19.168Z,100705.00
2022-10-25T00:28:45.891Z,100657.53
2022-10-25T00:31:14.885Z,100720.50
2022-10-25T00:33:42.835Z,100699.78
2022-10-25T00:36:12.598Z,100695.22
2022-10-25T00:38:39.573Z,100633.72
2022-10-25T00:41:06.920Z,100711.50
2022-10-25T00:43:42.825Z,100718.84
2022-10-25T00:46:18.269Z,100726.16
2022-10-25T00:49:11.736Z,100702.94
2022-10-25T00:51:48.845Z,100737.03
2022-10-25T00:54:20.302Z,100733.88
2022-10-25T00:56:50.353Z,100680.75
2022-10-25T00:59:21.108Z,100695.00
2022-10-25T01:01:47.960Z,100684.75
2022-10-25T01:04:17.255Z,100747.50
2022-10-25T01:06:48.921Z,100742.25
2022-10-25T01:09:21.467Z,100688.28
2022-10-25T01:11:47.989Z,100693.91
2022-10-25T01:14:16.894Z,100664.22
2022-10-25T01:16:56.521Z,100710.25
2022-10-25T01:19:47.937Z,100760.03
2022-10-25T01:22:30.377Z,100715.47
2022-10-25T01:25:15.972Z,100711.09
2022-10-25T01:30:58.614Z,100723.63
2022-10-25T01:33:46.445Z,100761.72
2022-10-25T01:36:35.643Z,100757.09
2022-10-25T01:39:12.128Z,100707.09
2022-10-25T01:41:49.718Z,100758.56
2022-10-25T01:44:28.252Z,100753.75
2022-10-25T01:47:01.907Z,100703.50
2022-10-25T01:49:40.400Z,100647.44
2022-10-25T01:52:07.068Z,100706.03
2022-10-25T01:54:33.596Z,100698.44
2022-10-25T01:57:31.082Z,100763.56
2022-10-25T02:00:33.274Z,100765.22
2022-10-25T02:03:09.944Z,100772.31
2022-10-25T02:06:04.349Z,100743.22
2022-10-25T02:08:41.444Z,100770.22
2022-10-25T02:11:26.052Z,100775.81
2022-10-25T02:13:56.358Z,100716.75
2022-10-25T02:16:28.183Z,100741.44
2022-10-25T02:19:00.686Z,100686.97
2022-10-25T02:21:30.798Z,100704.09
2022-10-25T02:23:59.783Z,100719.34
2022-10-25T02:26:27.432Z,100700.75
2022-10-25T02:28:54.792Z,100663.34
2022-10-25T02:31:23.261Z,100709.53
2022-10-25T02:33:50.285Z,100656.19
2022-10-25T02:36:22.587Z,100755.00
2022-10-25T02:38:51.138Z,100769.94
2022-10-25T02:41:19.321Z,100731.38
2022-10-25T02:43:45.821Z,100725.13
2022-10-25T02:46:15.377Z,100742.25
2022-10-25T02:48:42.077Z,100770.78
2022-10-25T02:51:09.556Z,100740.19
2022-10-25T02:53:36.545Z,100747.72
2022-10-25T02:56:14.991Z,100733.28
2022-10-25T02:58:45.151Z,100768.47
2022-10-25T03:01:12.752Z,100723.44
2022-10-25T03:03:40.052Z,100702.06
2022-10-25T03:06:07.962Z,100749.38
2022-10-25T03:08:35.095Z,100751.50
2022-10-25T03:11:01.770Z,100740.44
2022-10-25T03:13:28.360Z,100691.25
2022-10-25T03:15:54.831Z,100759.13
2022-10-25T03:18:22.280Z,100739.44
2022-10-25T03:20:49.356Z,100793.22
2022-10-25T03:23:16.579Z,100747.06
2022-10-25T03:25:43.277Z,100790.47
2022-10-25T03:28:09.850Z,100757.56
2022-10-25T03:30:36.428Z,100764.88
2022-10-25T03:33:02.997Z,100761.72
2022-10-25T03:35:29.664Z,100730.09
2022-10-25T03:37:56.179Z,100724.63
2022-10-25T03:40:23.602Z,100773.63
2022-10-25T03:42:50.100Z,100781.19
2022-10-25T03:45:17.253Z,100770.91
2022-10-25T03:47:44.446Z,100774.28
2022-10-25T03:50:11.261Z,100762.75
2022-10-25T03:52:38.129Z,100771.72
2022-10-25T03:55:05.666Z,100757.31
2022-10-25T03:57:32.334Z,100782.50
2022-10-25T03:59:59.665Z,100761.69
2022-10-25T04:02:27.211Z,100793.78
2022-10-25T04:04:53.918Z,100769.31
2022-10-25T04:07:20.547Z,100743.56
2022-10-25T04:09:47.020Z,100768.31
2022-10-25T04:12:13.778Z,100721.78
2022-10-25T04:14:40.250Z,100775.88
2022-10-25T04:17:06.709Z,100816.69
2022-10-25T04:19:33.183Z,100794.47
2022-10-25T04:22:02.090Z,100807.25
2022-10-25T04:24:29.309Z,100797.63
2022-10-25T04:26:55.856Z,100802.66
2022-10-25T04:29:22.705Z,100838.69
2022-10-25T04:31:49.313Z,100798.28
2022-10-25T04:34:15.882Z,100844.09
2022-10-25T04:36:42.705Z,100832.94
2022-10-25T04:39:09.254Z,100815.16
2022-10-25T04:41:35.773Z,100827.09
2022-10-25T04:44:02.291Z,100842.41
2022-10-25T04:46:28.765Z,100821.06
2022-10-25T04:48:55.281Z,100818.97
2022-10-25T04:51:21.838Z,100829.25
2022-10-25T04:53:48.347Z,100833.88
2022-10-25T04:56:15.061Z,100867.78
2022-10-25T04:58:41.624Z,100809.94
2022-10-25T05:01:11.290Z,100823.78
2022-10-25T05:03:38.572Z,100850.81
2022-10-25T05:06:06.508Z,100873.22
2022-10-25T05:08:33.167Z,100818.97
2022-10-25T05:11:00.083Z,100821.28
2022-10-25T05:13:27.231Z,100830.31
2022-10-25T05:15:57.811Z,100782.16
2022-10-25T05:18:24.834Z,100829.44
2022-10-25T05:20:55.771Z,100842.81
2022-10-25T05:23:22.904Z,100878.00
2022-10-25T05:25:59.684Z,100830.41
2022-10-25T05:28:26.601Z,100852.81
2022-10-25T05:30:53.127Z,100810.84
2022-10-25T05:33:19.661Z,100878.16
2022-10-25T05:35:46.298Z,100836.84
2022-10-25T05:38:12.847Z,100782.72
2022-10-25T05:40:39.644Z,100849.19
2022-10-25T05:43:06.287Z,100788.31
2022-10-25T05:45:32.801Z,100850.53
2022-10-25T05:47:59.300Z,100879.94
2022-10-25T05:50:25.794Z,100869.84
2022-10-25T05:52:53.392Z,100834.56
2022-10-25T05:55:19.929Z,100839.22
2022-10-25T05:57:52.325Z,100851.53
2022-10-25T06:00:19.238Z,100808.19
2022-10-25T06:02:46.945Z,100898.97
2022-10-25T06:05:13.702Z,100865.56
2022-10-25T06:07:40.218Z,100804.38
2022-10-25T06:10:10.450Z,100864.72
2022-10-25T06:12:37.493Z,100894.91
2022-10-25T06:15:04.407Z,100850.66
2022-10-25T06:17:31.505Z,100834.91
2022-10-25T06:19:58.018Z,100844.34
2022-10-25T06:22:24.610Z,100858.53
2022-10-25T06:24:51.145Z,100913.31
2022-10-25T06:27:17.671Z,100872.50
2022-10-25T06:29:44.161Z,100857.47
2022-10-25T06:32:10.771Z,100886.03
2022-10-25T06:34:37.419Z,100867.75
2022-10-25T06:37:05.068Z,100928.00
2022-10-25T06:39:31.737Z,100819.38
2022-10-25T06:41:58.289Z,100823.56
2022-10-25T06:44:24.777Z,100939.78
2022-10-25T06:47:16.409Z,100905.97
2022-10-25T06:49:37.853Z,100907.47
2022-10-25T06:52:04.494Z,100917.78
2022-10-25T06:54:31.005Z,100966.97
2022-10-25T06:56:57.967Z,100909.06
2022-10-25T06:59:24.704Z,100933.88
2022-10-25T07:01:51.362Z,100919.63
2022-10-25T07:04:17.941Z,100929.25
2022-10-25T07:06:44.418Z,100951.47
2022-10-25T07:09:12.414Z,100891.50
2022-10-25T07:11:39.477Z,100982.97
2022-10-25T07:14:06.079Z,100940.59
2022-10-25T07:16:32.702Z,100932.63
2022-10-25T07:18:59.929Z,100956.91
2022-10-25T07:21:27.669Z,100992.78
2022-10-25T07:23:54.224Z,100988.81
2022-10-25T07:26:26.770Z,100979.00
2022-10-25T07:28:55.154Z,100950.53
2022-10-25T07:31:24.520Z,100979.25
2022-10-25T07:33:53.269Z,100984.28
2022-10-25T07:36:20.345Z,101007.38
2022-10-25T07:38:47.036Z,100973.41
2022-10-25T07:41:13.624Z,100960.00
2022-10-25T07:43:40.305Z,100990.63
2022-10-25T07:46:07.564Z,101010.38
2022-10-25T07:48:34.720Z,100969.28
2022-10-25T07:51:06.148Z,100989.44
2022-10-25T07:53:32.805Z,100973.50
2022-10-25T07:55:59.388Z,101009.53
2022-10-25T07:58:25.900Z,100984.00
2022-10-25T08:00:52.417Z,100990.47
2022-10-25T08:03:18.970Z,100988.16
2022-10-25T08:05:47.043Z,101021.97
2022-10-25T08:08:14.822Z,101025.94
2022-10-25T08:10:43.367Z,100959.25
2022-10-25T08:13:10.290Z,101005.88
2022-10-25T08:15:36.872Z,101026.22
2022-10-25T08:18:04.334Z,100970.19
2022-10-25T08:20:49.658Z,100951.34
2022-10-25T08:23:17.654Z,100957.41
2022-10-25T08:25:44.527Z,100931.84
2022-10-25T08:28:11.269Z,100956.03
2022-10-25T08:30:38.147Z,100948.91
2022-10-25T08:33:06.486Z,100951.84
2022-10-25T08:35:35.825Z,100990.63
2022-10-25T08:38:04.832Z,101025.63
2022-10-25T08:40:48.901Z,101025.00
2022-10-25T08:43:20.409Z,101009.06
2022-10-25T08:46:09.714Z,100960.25
2022-10-25T08:48:38.874Z,101027.94
2022-10-25T08:51:21.307Z,100962.31
2022-10-25T08:53:52.065Z,100964.44
2022-10-25T08:56:19.263Z,101034.22
2022-10-25T08:58:53.851Z,100979.50
2022-10-25T09:01:52.712Z,100949.97
2022-10-25T09:04:20.389Z,100984.09
2022-10-25T09:07:08.195Z,101047.44
2022-10-25T09:10:02.965Z,101048.28
2022-10-25T09:12:39.557Z,101047.84
2022-10-25T09:15:36.810Z,101019.75
2022-10-25T09:18:22.671Z,101030.63
2022-10-25T09:20:50.956Z,101005.06
2022-10-25T09:23:26.307Z,101052.81
2022-10-25T09:26:26.564Z,101032.53
2022-10-25T09:29:12.756Z,101028.50
2022-10-25T09:31:44.388Z,101054.91
2022-10-25T09:34:11.557Z,101068.72
2022-10-25T09:36:46.296Z,101001.25
2022-10-25T09:39:38.377Z,101072.25
2022-10-25T09:42:07.474Z,101041.47
2022-10-25T09:44:50.251Z,101046.47
2022-10-25T09:47:35.182Z,101065.13
2022-10-25T09:50:04.889Z,101031.59
2022-10-25T09:52:45.195Z,101083.16
2022-10-25T09:55:11.653Z,101088.19
2022-10-25T09:57:38.309Z,101038.50
2022-10-25T10:00:10.047Z,101044.81
2022-10-25T10:02:37.769Z,101091.13
2022-10-25T10:05:05.281Z,101062.84
2022-10-25T10:07:37.300Z,101042.31
2022-10-25T10:10:09.453Z,101036.91
2022-10-25T10:13:15.853Z,101096.38
2022-10-25T10:15:52.231Z,101053.59
2022-10-25T10:18:28.987Z,101053.41
2022-10-25T10:21:14.502Z,101097.78
2022-10-25T10:23:43.992Z,101097.13
2022-10-25T10:26:43.600Z,101100.06
2022-10-25T10:29:22.588Z,101108.47
2022-10-25T10:31:59.469Z,101105.06
2022-10-25T10:34:26.382Z,101099.44
2022-10-25T10:37:05.123Z,101065.44
2022-10-25T10:39:34.022Z,101047.41
2022-10-25T10:45:17.331Z,101109.56
2022-10-25T10:47:48.347Z,101001.06
2022-10-25T10:50:26.998Z,101098.59
2022-10-25T10:52:59.760Z,101112.03
2022-10-25T10:55:54.021Z,101107.41
2022-10-25T10:58:27.474Z,101067.19
2022-10-25T11:01:07.855Z,101065.72
2022-10-25T11:03:45.197Z,101103.97
2022-10-25T11:06:36.085Z,101104.16
2022-10-25T11:09:19.284Z,101108.50
2022-10-25T11:12:05.858Z,101059.13
2022-10-25T11:14:32.584Z,101005.50
2022-10-25T11:17:17.709Z,101116.94
2022-10-25T11:19:55.889Z,101108.94
2022-10-25T11:25:58.358Z,101117.72
2022-10-25T11:28:50.528Z,101092.59
2022-10-25T11:31:32.381Z,101112.66
2022-10-25T11:34:35.690Z,101086.84
2022-10-25T11:37:14.312Z,101108.63
2022-10-25T11:40:02.582Z,101096.59
2022-10-25T11:42:36.003Z,101104.97
2022-10-25T11:45:29.918Z,101059.25
2022-10-25T11:48:15.725Z,101103.88
2022-10-25T11:51:10.387Z,101108.03
2022-10-25T11:53:55.469Z,101106.59
2022-10-25T11:56:59.609Z,101110.78
2022-10-25T11:59:38.312Z,101109.78
2022-10-25T12:02:25.937Z,101077.72
2022-10-25T12:05:22.086Z,101094.97
2022-10-25T12:08:18.374Z,101061.31
2022-10-25T12:11:01.790Z,101062.84
2022-10-25T12:13:38.342Z,101061.19
2022-10-25T12:16:14.205Z,101031.00
2022-10-25T12:18:49.427Z,101106.78
2022-10-25T12:21:22.455Z,101100.44
2022-10-25T12:23:51.671Z,101044.50
2022-10-25T12:26:35.326Z,101107.50
2022-10-25T12:29:05.386Z,101037.94
2022-10-25T12:31:38.179Z,101033.69
2022-10-25T12:34:14.237Z,101068.84
2022-10-25T12:36:53.191Z,101052.56
2022-10-25T12:39:42.397Z,101110.31
2022-10-25T12:42:36.426Z,101070.03
2022-10-25T12:45:24.870Z,101103.50
2022-10-25T12:48:40.348Z,101096.72
2022-10-25T12:51:28.795Z,101092.53
2022-10-25T12:54:26.176Z,101036.03
2022-10-25T12:56:52.671Z,101107.13
2022-10-25T12:59:36.199Z,101040.28
2022-10-25T13:02:02.596Z,101100.69
2022-10-25T13:04:38.990Z,101039.94
2022-10-25T13:07:09.837Z,101046.25
2022-10-25T13:09:38.951Z,101088.31
2022-10-25T13:12:30.564Z,101097.72
2022-10-25T13:14:59.045Z,101090.53
2022-10-25T13:17:25.533Z,101081.94
2022-10-25T13:22:45.350Z,101093.16
2022-10-25T13:25:49.790Z,101083.50
2022-10-25T13:28:17.289Z,101081.03
2022-10-25T13:30:46.567Z,101078.09
2022-10-25T13:33:19.296Z,101077.94
2022-10-25T13:35:48.439Z,101071.72
2022-10-25T13:38:32.443Z,101075.31
2022-10-25T13:41:04.537Z,101082.44
2022-10-25T13:43:32.859Z,101028.84
2022-10-25T13:45:59.483Z,101042.66
2022-10-25T13:48:30.398Z,100995.72
2022-10-25T13:51:16.810Z,101080.28
2022-10-25T13:53:50.018Z,101000.75
2022-10-25T13:56:22.402Z,101091.63
2022-10-25T13:58:57.682Z,101066.28
2022-10-25T14:01:26.601Z,101085.66
2022-10-25T14:04:02.551Z,101079.09
2022-10-25T14:06:32.943Z,101075.06
2022-10-25T14:09:19.015Z,101021.91
2022-10-25T14:12:14.608Z,101026.47
2022-10-25T14:14:48.253Z,101072.13
2022-10-25T14:17:44.553Z,101079.72
2022-10-25T14:20:36.023Z,101076.44
2022-10-25T14:23:12.988Z,100985.47
2022-10-25T14:25:42.579Z,101002.69
2022-10-25T14:28:20.971Z,101070.72
2022-10-25T14:30:53.532Z,101065.75
2022-10-25T14:33:29.102Z,101068.72
2022-10-25T14:36:30.808Z,100954.00
2022-10-25T14:39:15.938Z,101063.06
2022-10-25T14:41:53.060Z,101064.56
2022-10-25T14:44:32.563Z,101019.78
2022-10-25T14:47:01.449Z,101056.41
2022-10-25T14:49:30.566Z,100976.22
2022-10-25T14:52:03.159Z,100981.66
2022-10-25T14:54:32.562Z,101009.09
2022-10-25T14:57:02.414Z,100974.13
2022-10-25T14:59:46.211Z,101045.75
2022-10-25T15:02:32.720Z,100994.47
2022-10-25T15:05:01.474Z,100954.09
2022-10-25T15:07:35.521Z,101050.44
2022-10-25T15:12:35.592Z,101005.63
2022-10-25T15:15:44.000Z,101041.50
2022-10-25T15:18:34.968Z,101047.13
2022-10-25T15:21:03.845Z,100984.97
2022-10-25T15:23:31.036Z,100986.66
2022-10-25T15:25:57.704Z,100975.97
2022-10-25T15:28:24.358Z,100917.97
2022-10-25T15:30:53.141Z,100954.63
2022-10-25T15:33:23.811Z,101039.22
2022-10-25T15:36:03.853Z,100971.78
2022-10-25T15:38:54.383Z,100982.66
2022-10-25T15:41:24.570Z,100958.63
2022-10-25T15:43:52.176Z,100955.53
2022-10-25T15:46:33.163Z,100961.41
2022-10-25T15:49:03.370Z,100976.91
2022-10-25T15:51:40.152Z,100952.63
2022-10-25T15:54:15.164Z,100945.91
2022-10-25T15:56:42.461Z,100976.09
2022-10-25T15:59:09.526Z,100973.63
2022-10-25T16:01:37.755Z,100959.97
2022-10-25T16:04:04.468Z,100991.63
2022-10-25T16:06:31.106Z,100886.28
2022-10-25T16:08:57.671Z,100993.34
2022-10-25T16:11:24.436Z,100998.53
2022-10-25T16:13:53.406Z,100950.16
2022-10-25T16:16:39.928Z,100973.19
2022-10-25T16:19:14.073Z,100968.19
2022-10-25T16:21:40.982Z,100978.91
2022-10-25T16:24:07.675Z,100916.25
2022-10-25T16:26:36.332Z,101012.63
2022-10-25T16:29:04.528Z,100946.44
2022-10-25T16:31:31.286Z,100979.53
2022-10-25T16:33:59.019Z,100946.59
2022-10-25T16:36:30.048Z,100978.88
2022-10-25T16:38:57.053Z,100991.47
2022-10-25T16:41:26.599Z,100956.88
2022-10-25T16:43:53.146Z,101018.06
2022-10-25T16:46:19.897Z,100904.94
2022-10-25T16:48:46.588Z,100901.75
2022-10-25T16:51:14.480Z,100934.25
2022-10-25T16:53:41.651Z,100920.22
2022-10-25T16:56:13.141Z,100941.38
2022-10-25T16:58:43.470Z,100895.72
2022-10-25T17:01:29.201Z,100903.91
2022-10-25T17:03:59.635Z,100845.84
2022-10-25T17:06:40.865Z,100864.69
2022-10-25T17:12:29.871Z,100931.72
2022-10-25T17:14:57.778Z,100911.56
2022-10-25T17:17:24.532Z,100929.56
2022-10-25T17:19:53.996Z,100898.97
2022-10-25T17:22:21.961Z,101008.41
2022-10-25T17:24:48.546Z,100966.50
2022-10-25T17:27:17.649Z,101002.56
2022-10-25T17:29:46.571Z,100888.94
2022-10-25T17:32:16.979Z,100899.63
2022-10-25T17:34:44.180Z,100954.50
2022-10-25T17:37:18.350Z,100870.88
2022-10-25T17:39:48.187Z,100893.50
2022-10-25T17:42:16.022Z,100968.50
2022-10-25T17:44:54.806Z,100942.13
2022-10-25T17:47:21.677Z,100839.22
2022-10-25T17:49:52.064Z,100963.94
2022-10-25T17:52:18.716Z,100964.75
2022-10-25T17:54:45.386Z,100904.16
2022-10-25T17:57:15.282Z,100924.06
2022-10-25T17:59:42.957Z,100918.63
2022-10-25T18:02:12.887Z,100822.63
2022-10-25T18:04:53.775Z,100899.53
2022-10-25T18:07:38.813Z,100885.44
2022-10-25T18:10:05.790Z,100936.56
2022-10-25T18:12:32.363Z,100916.03
2022-10-25T18:14:59.508Z,101009.31
2022-10-25T18:20:38.186Z,100892.91
2022-10-25T18:23:07.005Z,101011.56
2022-10-25T18:25:34.585Z,100950.28
2022-10-25T18:28:01.401Z,100877.50
2022-10-25T18:30:28.091Z,100871.84
2022-10-25T18:32:54.803Z,100915.06
2022-10-25T18:35:21.378Z,100894.41
2022-10-25T18:37:48.632Z,100931.97
2022-10-25T18:40:15.728Z,100921.28
2022-10-25T18:42:44.438Z,100916.25
2022-10-25T18:45:11.333Z,100942.44
2022-10-25T18:47:45.896Z,100953.97
2022-10-25T18:50:22.286Z,100958.75
2022-10-25T18:52:50.025Z,100997.22
2022-10-25T18:57:45.151Z,100872.84
2022-10-25T19:00:12.584Z,100926.09
2022-10-25T19:02:39.305Z,100952.72
2022-10-25T19:07:37.675Z,100921.50
2022-10-25T19:10:04.635Z,100922.63
2022-10-25T19:12:31.180Z,100930.19
2022-10-25T19:14:57.653Z,100915.47
2022-10-25T19:17:24.134Z,100923.03
2022-10-25T19:19:50.551Z,100927.22
2022-10-25T19:22:16.989Z,100916.28
2022-10-25T19:24:43.447Z,100942.63
2022-10-25T19:27:09.911Z,100921.22
2022-10-25T19:29:41.730Z,100931.25
2022-10-25T19:32:08.473Z,100931.75
2022-10-25T19:34:34.917Z,100946.28
2022-10-25T19:37:07.787Z,100929.25
2022-10-25T19:39:35.799Z,100972.00
2022-10-25T19:42:02.291Z,100914.97
2022-10-25T19:44:28.818Z,100896.03
2022-10-25T19:46:55.391Z,100953.28
2022-10-25T19:49:24.667Z,100918.22
2022-10-25T19:51:51.115Z,100926.28
2022-10-25T19:54:19.820Z,100909.44
2022-10-25T19:56:46.737Z,100879.31
2022-10-25T19:59:13.424Z,100927.81
2022-10-25T20:01:47.358Z,100891.63
2022-10-25T20:04:14.203Z,100921.09
2022-10-25T20:06:41.262Z,100978.03
2022-10-25T20:09:09.778Z,100910.56
2022-10-25T20:11:36.274Z,100873.13
2022-10-25T20:14:02.869Z,100902.88
2022-10-25T20:16:29.998Z,100909.97
2022-10-25T20:18:58.704Z,100973.72
2022-10-25T20:21:30.861Z,100966.63
2022-10-25T20:24:37.003Z,100859.38
2022-10-25T20:27:03.638Z,100884.16
2022-10-25T20:29:30.182Z,100916.09
2022-10-25T20:31:56.818Z,100907.03
2022-10-25T20:34:23.432Z,100962.88
2022-10-25T20:36:50.044Z,100918.88
2022-10-25T20:39:17.133Z,100956.47
2022-10-25T20:41:43.960Z,100937.72
2022-10-25T20:44:10.551Z,100950.91
2022-10-25T20:46:37.800Z,100888.84
2022-10-25T20:49:07.242Z,100842.47
2022-10-25T20:51:34.684Z,100879.50
2022-10-25T20:54:01.291Z,100813.31
2022-10-25T20:56:30.100Z,100935.41
2022-10-25T20:58:56.551Z,100870.28
2022-10-25T21:01:23.128Z,100866.97
2022-10-25T21:03:53.967Z,100853.16
2022-10-25T21:06:20.447Z,100844.41
2022-10-25T21:08:49.150Z,100875.44
2022-10-25T21:11:18.631Z,100935.75
2022-10-25T21:13:45.045Z,100945.75
2022-10-25T21:16:15.875Z,100883.66
2022-10-25T21:18:43.480Z,100946.22
2022-10-25T21:21:17.733Z,100880.16
2022-10-25T21:23:45.560Z,100894.94
2022-10-25T21:26:12.128Z,100868.66
2022-10-25T21:28:41.089Z,100879.13
2022-10-25T21:31:10.387Z,100933.97
2022-10-25T21:33:37.541Z,100925.00
2022-10-25T21:36:06.624Z,100853.03
2022-10-25T21:38:33.219Z,100882.59
2022-10-25T21:41:36.502Z,100925.84
2022-10-25T21:44:03.041Z,100852.38
2022-10-25T21:46:29.570Z,100847.16
2022-10-25T21:48:56.167Z,100840.72
2022-10-25T21:51:26.601Z,100866.06
2022-10-25T21:53:54.418Z,100838.59
2022-10-25T21:56:30.583Z,100906.94
2022-10-25T21:58:59.029Z,100907.78
2022-10-25T22:01:28.643Z,100857.81
2022-10-25T22:03:55.199Z,100840.00
2022-10-25T22:06:23.694Z,100839.75
2022-10-25T22:08:53.687Z,100856.13
2022-10-25T22:11:22.813Z,100919.13
2022-10-25T22:13:54.467Z,100917.88
2022-10-25T22:16:21.251Z,100922.09
2022-10-25T22:18:50.503Z,100921.41
2022-10-25T22:21:17.027Z,100914.25
2022-10-25T22:23:43.689Z,100837.31
2022-10-25T22:26:12.319Z,100913.06
2022-10-25T22:28:41.047Z,100911.19
2022-10-25T22:31:13.490Z,100911.44
2022-10-25T22:33:40.884Z,100863.41
2022-10-25T22:36:08.846Z,100912.06
2022-10-25T22:38:35.678Z,100807.47
2022-10-25T22:41:05.704Z,100910.44
2022-10-25T22:43:34.783Z,100875.66
2022-10-25T22:46:03.179Z,100905.22
2022-10-25T22:48:37.817Z,100909.63
2022-10-25T22:51:07.776Z,100814.88
2022-10-25T22:53:35.599Z,100870.66
2022-10-25T22:56:11.745Z,100849.91
2022-10-25T22:58:39.709Z,100899.38
2022-10-25T23:01:09.378Z,100906.31
2022-10-25T23:03:38.413Z,100819.50
2022-10-25T23:06:06.928Z,100902.94
2022-10-25T23:08:34.017Z,100826.66
2022-10-25T23:11:02.821Z,100898.41
2022-10-25T23:13:38.038Z,100817.03
2022-10-25T23:16:07.154Z,100885.59
2022-10-25T23:18:34.334Z,100831.75
2022-10-25T23:21:02.497Z,100887.13
2022-10-25T23:23:44.410Z,100829.22
2022-10-25T23:26:17.270Z,100824.44
2022-10-25T23:28:43.848Z,100857.97
2022-10-25T23:31:11.803Z,100829.16
2022-10-25T23:33:39.380Z,100828.44
2022-10-25T23:36:16.712Z,100890.72
2022-10-25T23:38:49.432Z,100815.88
2022-10-25T23:41:17.426Z,100831.66
2022-10-25T23:43:43.914Z,100845.50
2022-10-25T23:46:15.314Z,100810.06
2022-10-25T23:48:41.891Z,100869.47
2022-10-25T23:51:10.935Z,100869.25
2022-10-25T23:53:37.543Z,100827.28
2022-10-25T23:56:05.785Z,100795.47
2022-10-25T23:58:34.571Z,100819.78
